This is the latest recevied weather packets stored in our database for station/object CT1ETE-13. If no packets are shown the sender has not sent any weather packets the latest 10 day(s).
| Time | Temp. | Humidity | Pressure | Rain* | Wind** | Luminosity | Snow |
|---|---|---|---|---|---|---|---|
| 1787966687 | 15.56° C | 81% | 1021.6 hPa | 0 mm | - | 1471 W/m² | - |
| 1787965787 | 15.56° C | 83% | 1021.7 hPa | 0 mm | - | 1470 W/m² | - |
| 1787964887 | 15.56° C | 83% | 1021.6 hPa | 0 mm | - | 1468 W/m² | - |
| 1787963984 | 15.56° C | 81% | 1021.7 hPa | 0 mm | - | 1468 W/m² | - |
| 1787963085 | 15.56° C | 81% | 1021.8 hPa | 0 mm | - | 1468 W/m² | - |
| 1787962183 | 15.56° C | 80% | 1021.9 hPa | 0 mm | - | 1468 W/m² | - |
| 1787961283 | 15.56° C | 80% | 1022 hPa | 0 mm | - | 1468 W/m² | - |
| 1787960383 | 15.56° C | 82% | 1022.3 hPa | 0 mm | - | 1468 W/m² | - |
| 1787959481 | 15.56° C | 83% | 1022.3 hPa | 0 mm | - | 1468 W/m² | - |
| 1787958581 | 15.56° C | 82% | 1022.4 hPa | 0 mm | - | 1466 W/m² | - |
| 1787957679 | 16.11° C | 83% | 1022.4 hPa | 0 mm | - | 1466 W/m² | - |
| 1787956836 | 16.11° C | 83% | 1022.5 hPa | 0 mm | - | 1464 W/m² | - |
| 1787955875 | 16.11° C | 83% | 1022.6 hPa | 0 mm | - | 1464 W/m² | - |
| 1787954975 | 16.11° C | 84% | 1022.5 hPa | 0 mm | - | 1463 W/m² | - |
| 1787954075 | 16.11° C | 84% | 1022.6 hPa | 0 mm | - | 1463 W/m² | - |
| 1787953175 | 16.11° C | 85% | 1022.7 hPa | 0 mm | - | 1461 W/m² | - |
| 1787952275 | 16.67° C | 85% | 1022.7 hPa | 0 mm | - | 1459 W/m² | - |
| 1787951375 | 16.67° C | 85% | 1022.6 hPa | 0 mm | - | 1457 W/m² | - |
| 1787950473 | 16.67° C | 85% | 1022.6 hPa | 0 mm | - | 1454 W/m² | - |
| 1787949571 | 17.22° C | 84% | 1022.5 hPa | 0 mm | - | 1452 W/m² | - |
| 1787948729 | 17.22° C | 84% | 1022.5 hPa | 0 mm | - | 1450 W/m² | - |
| 1787947769 | 17.78° C | 83% | 1022.3 hPa | 0 mm | - | 1447 W/m² | - |
| 1787946868 | 17.78° C | 81% | 1022.3 hPa | 0 mm | - | 1450 W/m² | - |
| 1787946024 | 18.33° C | 80% | 1022.2 hPa | 0 mm | - | 1445 W/m² | - |
| 1787945065 | 18.33° C | 78% | 1022 hPa | 0 mm | - | 1438 W/m² | - |
* Rain latest hour (hover to see other rain measurements)
** Current wind speed in m/s (hover to see current wind gust speed)